createdAt,value
2018-10-07T00:00:58.629Z,99.99
2018-10-07T00:01:58.781Z,99.99
2018-10-07T00:02:58.933Z,99.99
2018-10-07T00:03:59.085Z,99.99
2018-10-07T00:04:59.235Z,99.99
2018-10-07T00:05:59.384Z,99.99
2018-10-07T00:06:59.533Z,99.99
2018-10-07T00:07:59.688Z,99.99
2018-10-07T00:08:59.838Z,99.99
2018-10-07T00:09:59.988Z,99.99
2018-10-07T00:11:00.139Z,99.99
2018-10-07T00:12:00.289Z,99.99
2018-10-07T00:13:00.442Z,99.99
2018-10-07T00:14:00.592Z,99.99
2018-10-07T00:15:00.742Z,99.99
2018-10-07T00:16:00.893Z,99.99
2018-10-07T00:17:01.044Z,99.99
2018-10-07T00:18:01.195Z,99.99
2018-10-07T00:19:01.346Z,99.99
2018-10-07T00:20:01.494Z,99.99
2018-10-07T00:21:01.644Z,99.99
2018-10-07T00:22:01.797Z,99.99
2018-10-07T00:23:01.948Z,99.99
2018-10-07T00:24:02.099Z,99.99
2018-10-07T00:25:02.247Z,99.99
2018-10-07T00:26:02.399Z,99.99
2018-10-07T00:27:02.549Z,99.99
2018-10-07T00:28:02.703Z,99.99
2018-10-07T00:29:02.855Z,99.99
2018-10-07T00:30:03.005Z,99.99
2018-10-07T00:31:03.154Z,99.99
2018-10-07T00:32:03.304Z,99.99
2018-10-07T00:33:03.455Z,99.99
2018-10-07T00:34:03.609Z,99.99
2018-10-07T00:35:03.754Z,99.99
2018-10-07T00:36:03.904Z,99.99
2018-10-07T00:37:04.056Z,99.99
2018-10-07T00:38:04.203Z,99.99
2018-10-07T00:39:04.354Z,99.99
2018-10-07T00:40:04.503Z,99.99
2018-10-07T00:41:04.654Z,99.99
2018-10-07T00:42:04.803Z,99.99
2018-10-07T00:43:04.955Z,99.99
2018-10-07T00:44:05.105Z,99.99
2018-10-07T00:45:05.258Z,99.99
2018-10-07T00:46:05.404Z,99.99
2018-10-07T00:47:05.557Z,99.99
2018-10-07T00:48:05.703Z,99.99
2018-10-07T00:49:05.854Z,99.99
2018-10-07T00:50:06.008Z,99.99
2018-10-07T00:51:06.152Z,99.99
2018-10-07T00:52:06.302Z,99.99
2018-10-07T00:53:06.457Z,99.99
2018-10-07T00:54:06.608Z,99.99
2018-10-07T00:55:06.756Z,99.99
2018-10-07T00:56:06.920Z,99.99
2018-10-07T00:57:07.056Z,99.99
2018-10-07T00:58:07.207Z,99.99
2018-10-07T00:59:07.356Z,99.99
2018-10-07T01:00:07.507Z,99.99
2018-10-07T01:01:07.660Z,99.99
2018-10-07T01:02:07.813Z,99.99
2018-10-07T01:03:07.961Z,99.99
2018-10-07T01:04:08.110Z,99.99
2018-10-07T01:05:08.259Z,99.99
2018-10-07T01:06:08.411Z,99.99
2018-10-07T01:07:08.563Z,99.99
2018-10-07T01:08:08.711Z,99.99
2018-10-07T01:09:08.889Z,99.99
2018-10-07T01:10:09.008Z,99.99
2018-10-07T01:11:09.157Z,99.99
2018-10-07T01:12:09.308Z,99.99
2018-10-07T01:13:09.460Z,99.99
2018-10-07T01:14:09.607Z,99.99
2018-10-07T01:15:09.757Z,99.99
2018-10-07T01:16:09.906Z,99.99
2018-10-07T01:17:10.057Z,99.99
2018-10-07T01:18:10.205Z,99.99
2018-10-07T01:19:10.355Z,99.99
2018-10-07T01:20:10.507Z,99.99
2018-10-07T01:21:10.653Z,99.99
2018-10-07T01:22:10.805Z,99.99
2018-10-07T01:23:10.955Z,99.99
2018-10-07T01:24:11.106Z,99.99
2018-10-07T01:25:11.255Z,99.99
2018-10-07T01:26:11.410Z,99.99
2018-10-07T01:27:11.559Z,99.99
2018-10-07T01:28:11.736Z,99.99
2018-10-07T01:29:11.885Z,99.99
2018-10-07T01:30:12.035Z,99.99
2018-10-07T01:31:12.185Z,99.99
2018-10-07T01:32:12.336Z,99.99
2018-10-07T01:33:12.484Z,99.99
2018-10-07T01:34:12.636Z,99.99
2018-10-07T01:35:12.786Z,99.99
2018-10-07T01:36:12.935Z,99.99
2018-10-07T01:37:13.085Z,99.99
2018-10-07T01:38:13.234Z,99.99
2018-10-07T01:39:13.384Z,99.99
2018-10-07T01:40:13.535Z,99.99
2018-10-07T01:41:13.689Z,99.99
2018-10-07T01:42:13.839Z,99.99
2018-10-07T01:43:13.991Z,99.99
2018-10-07T01:44:14.138Z,99.99
2018-10-07T01:45:14.286Z,99.99
2018-10-07T01:46:14.439Z,99.99
2018-10-07T01:47:14.587Z,99.99
2018-10-07T01:48:14.736Z,99.99
2018-10-07T01:49:14.887Z,99.99
2018-10-07T01:50:15.035Z,99.99
2018-10-07T01:51:15.185Z,99.99
2018-10-07T01:52:15.334Z,99.99
2018-10-07T01:53:15.484Z,99.99
2018-10-07T01:54:15.638Z,99.99
2018-10-07T01:55:15.784Z,99.99
2018-10-07T01:56:15.937Z,99.99
2018-10-07T01:57:16.084Z,99.99
2018-10-07T01:58:16.231Z,99.99
2018-10-07T01:59:16.389Z,99.99
2018-10-07T02:00:16.523Z,99.99
2018-10-07T02:01:16.685Z,99.99
2018-10-07T02:02:16.835Z,99.99
2018-10-07T02:03:16.986Z,99.99
2018-10-07T02:04:17.136Z,99.99
2018-10-07T02:05:17.286Z,99.99
2018-10-07T02:06:17.436Z,99.99
2018-10-07T02:07:17.585Z,99.99
2018-10-07T02:08:17.733Z,99.99
2018-10-07T02:09:17.883Z,99.99
2018-10-07T02:10:18.035Z,99.99
2018-10-07T02:11:18.186Z,99.99
2018-10-07T02:12:18.333Z,99.99
2018-10-07T02:13:18.485Z,99.99
2018-10-07T02:14:18.636Z,99.99
2018-10-07T02:15:18.783Z,99.99
2018-10-07T02:16:18.938Z,99.99
2018-10-07T02:17:19.092Z,99.99
2018-10-07T02:18:19.237Z,99.99
2018-10-07T02:19:19.387Z,99.99
2018-10-07T02:20:19.534Z,99.99
2018-10-07T02:21:19.688Z,99.99
2018-10-07T02:22:19.835Z,99.99
2018-10-07T02:23:19.982Z,99.99
2018-10-07T02:24:20.133Z,99.99
2018-10-07T02:25:20.286Z,99.99
2018-10-07T02:26:20.434Z,99.99
2018-10-07T02:27:20.584Z,99.99
2018-10-07T02:28:20.733Z,99.75
2018-10-07T02:29:20.884Z,99.99
2018-10-07T02:30:21.035Z,99.75
2018-10-07T02:31:21.183Z,99.18
2018-10-07T02:32:21.338Z,99.66
2018-10-07T02:33:21.485Z,99.66
2018-10-07T02:34:21.633Z,99.46
2018-10-07T02:35:21.781Z,99.75
2018-10-07T02:36:21.931Z,99.99
2018-10-07T02:37:22.081Z,99.99
2018-10-07T02:38:22.233Z,99.37
2018-10-07T02:39:22.379Z,99.60
2018-10-07T02:40:22.531Z,99.27
2018-10-07T02:41:22.676Z,99.85
2018-10-07T02:42:22.825Z,99.99
2018-10-07T02:43:22.997Z,99.99
2018-10-07T02:44:23.124Z,99.89
2018-10-07T02:45:23.273Z,99.85
2018-10-07T02:46:23.423Z,99.56
2018-10-07T02:47:23.572Z,99.95
2018-10-07T02:48:23.721Z,99.66
2018-10-07T02:49:23.868Z,99.99
2018-10-07T02:50:24.016Z,99.60
2018-10-07T02:51:24.181Z,98.94
2018-10-07T02:52:24.472Z,99.04
2018-10-07T02:53:24.605Z,98.94
2018-10-07T02:54:24.696Z,99.13
2018-10-07T02:55:24.848Z,99.51
2018-10-07T02:56:24.996Z,99.60
2018-10-07T02:57:25.145Z,99.22
2018-10-07T02:58:25.295Z,98.61
2018-10-07T02:59:25.469Z,98.61
2018-10-07T03:00:25.595Z,98.85
2018-10-07T03:01:25.751Z,99.51
2018-10-07T03:02:25.900Z,99.41
2018-10-07T03:03:26.046Z,99.41
2018-10-07T03:04:26.209Z,99.04
2018-10-07T03:05:26.345Z,99.32
2018-10-07T03:06:26.495Z,98.94
2018-10-07T03:07:26.641Z,98.94
2018-10-07T03:08:26.792Z,98.94
2018-10-07T03:09:26.942Z,99.13
2018-10-07T03:10:27.089Z,99.22
2018-10-07T03:11:27.238Z,98.56
2018-10-07T03:12:27.388Z,98.27
2018-10-07T03:13:27.538Z,98.46
2018-10-07T03:14:27.684Z,98.56
2018-10-07T03:15:27.838Z,98.56
2018-10-07T03:16:27.984Z,97.80
2018-10-07T03:17:28.133Z,98.65
2018-10-07T03:18:28.283Z,98.27
2018-10-07T03:19:28.435Z,98.08
2018-10-07T03:20:28.585Z,98.27
2018-10-07T03:21:28.733Z,98.27
2018-10-07T03:22:28.881Z,98.27
2018-10-07T03:23:29.032Z,98.36
2018-10-07T03:24:29.184Z,97.99
2018-10-07T03:25:29.335Z,98.56
2018-10-07T03:26:29.472Z,98.36
2018-10-07T03:27:29.622Z,97.61
2018-10-07T03:28:29.772Z,97.51
2018-10-07T03:29:29.997Z,97.41
2018-10-07T03:30:30.069Z,97.61
2018-10-07T03:31:30.216Z,97.70
2018-10-07T03:32:30.364Z,97.61
2018-10-07T03:33:30.512Z,97.89
2018-10-07T03:34:30.663Z,97.41
2018-10-07T03:35:30.813Z,98.08
2018-10-07T03:36:30.964Z,97.22
2018-10-07T03:37:31.119Z,97.89
2018-10-07T03:38:31.258Z,97.27
2018-10-07T03:39:31.406Z,97.17
2018-10-07T03:40:31.556Z,97.03
2018-10-07T03:41:31.706Z,97.08
2018-10-07T03:42:31.854Z,96.60
2018-10-07T03:43:32.004Z,96.51
2018-10-07T03:44:32.154Z,96.32
2018-10-07T03:45:32.302Z,96.70
2018-10-07T03:46:32.453Z,96.32
2018-10-07T03:47:32.594Z,96.46
2018-10-07T03:48:32.741Z,95.89
2018-10-07T03:49:32.888Z,95.79
2018-10-07T03:50:33.038Z,95.70
2018-10-07T03:51:33.186Z,96.08
2018-10-07T03:52:33.334Z,96.46
2018-10-07T03:53:33.487Z,96.08
2018-10-07T03:54:33.634Z,96.08
2018-10-07T03:55:33.782Z,96.27
2018-10-07T03:56:33.931Z,96.08
2018-10-07T03:57:34.079Z,95.89
2018-10-07T03:58:34.228Z,95.79
2018-10-07T03:59:34.380Z,96.65
2018-10-07T04:00:34.527Z,96.27
2018-10-07T04:01:34.676Z,96.36
2018-10-07T04:02:34.828Z,96.17
2018-10-07T04:03:34.978Z,96.17
2018-10-07T04:04:35.122Z,96.65
2018-10-07T04:05:35.274Z,96.17
2018-10-07T04:06:35.419Z,96.46
2018-10-07T04:07:35.569Z,96.27
2018-10-07T04:08:35.718Z,96.36
2018-10-07T04:09:35.864Z,96.65
2018-10-07T04:10:36.015Z,96.56
2018-10-07T04:11:36.170Z,95.98
2018-10-07T04:12:36.313Z,95.75
2018-10-07T04:13:36.462Z,95.70
2018-10-07T04:14:36.611Z,95.79
2018-10-07T04:15:36.762Z,95.89
2018-10-07T04:16:36.911Z,95.56
2018-10-07T04:17:37.063Z,95.51
2018-10-07T04:18:37.213Z,95.61
2018-10-07T04:19:37.364Z,95.51
2018-10-07T04:20:37.507Z,95.61
2018-10-07T04:21:37.657Z,95.12
2018-10-07T04:22:37.804Z,95.27
2018-10-07T04:23:37.958Z,95.32
2018-10-07T04:24:38.100Z,95.41
2018-10-07T04:25:38.251Z,95.61
2018-10-07T04:26:38.401Z,95.41
2018-10-07T04:27:38.547Z,95.41
2018-10-07T04:28:38.697Z,95.61
2018-10-07T04:29:38.844Z,95.51
2018-10-07T04:30:38.996Z,95.27
2018-10-07T04:31:39.147Z,95.51
2018-10-07T04:32:39.294Z,94.89
2018-10-07T04:33:39.442Z,94.93
2018-10-07T04:34:39.599Z,95.41
2018-10-07T04:35:39.743Z,95.08
2018-10-07T04:36:39.888Z,95.36
2018-10-07T04:37:40.078Z,95.27
2018-10-07T04:38:40.186Z,95.27
2018-10-07T04:39:40.372Z,95.56
2018-10-07T04:40:40.485Z,94.41
2018-10-07T04:41:40.633Z,94.13
2018-10-07T04:42:40.781Z,94.13
2018-10-07T04:43:40.928Z,94.03
2018-10-07T04:44:41.081Z,93.84
2018-10-07T04:45:41.229Z,93.84
2018-10-07T04:46:41.381Z,93.55
2018-10-07T04:47:41.527Z,93.74
2018-10-07T04:48:41.676Z,93.55
2018-10-07T04:49:41.816Z,93.55
2018-10-07T04:50:41.962Z,93.84
2018-10-07T04:51:42.108Z,93.55
2018-10-07T04:52:42.267Z,93.74
2018-10-07T04:53:42.407Z,93.93
2018-10-07T04:54:42.554Z,93.65
2018-10-07T04:55:42.703Z,94.03
2018-10-07T04:56:42.851Z,93.65
2018-10-07T04:57:43.002Z,93.65
2018-10-07T04:58:43.149Z,93.65
2018-10-07T04:59:43.298Z,93.65
2018-10-07T05:00:43.448Z,94.51
2018-10-07T05:01:43.597Z,93.65
2018-10-07T05:02:43.745Z,93.74
2018-10-07T05:03:43.897Z,93.27
2018-10-07T05:04:44.044Z,93.46
2018-10-07T05:05:44.193Z,93.46
2018-10-07T05:06:44.350Z,93.65
2018-10-07T05:07:44.499Z,93.46
2018-10-07T05:08:44.648Z,93.55
2018-10-07T05:09:44.800Z,93.65
2018-10-07T05:10:44.948Z,93.74
2018-10-07T05:11:45.096Z,93.46
2018-10-07T05:12:45.319Z,93.08
2018-10-07T05:13:45.395Z,93.65
2018-10-07T05:14:45.543Z,93.55
2018-10-07T05:15:45.693Z,93.46
2018-10-07T05:16:45.841Z,93.74
2018-10-07T05:17:45.991Z,93.65
2018-10-07T05:18:46.137Z,93.27
2018-10-07T05:19:46.287Z,92.32
2018-10-07T05:20:46.446Z,92.32
2018-10-07T05:21:46.585Z,92.89
2018-10-07T05:22:46.733Z,92.22
2018-10-07T05:23:46.883Z,92.41
2018-10-07T05:24:47.032Z,92.32
2018-10-07T05:25:47.180Z,92.32
2018-10-07T05:26:47.328Z,91.84
2018-10-07T05:27:47.478Z,92.03
2018-10-07T05:28:47.629Z,91.27
2018-10-07T05:29:47.777Z,91.36
2018-10-07T05:30:47.929Z,91.46
2018-10-07T05:31:48.075Z,91.17
2018-10-07T05:32:48.225Z,91.03
2018-10-07T05:33:48.374Z,91.31
2018-10-07T05:34:48.525Z,91.55
2018-10-07T05:35:48.674Z,91.36
2018-10-07T05:36:48.823Z,91.27
2018-10-07T05:37:48.974Z,91.08
2018-10-07T05:38:49.121Z,90.89
2018-10-07T05:39:49.271Z,91.22
2018-10-07T05:40:49.422Z,91.31
2018-10-07T05:41:49.569Z,91.60
2018-10-07T05:42:49.717Z,92.17
2018-10-07T05:43:49.868Z,91.08
2018-10-07T05:44:50.117Z,91.36
2018-10-07T05:45:50.165Z,90.98
2018-10-07T05:46:50.314Z,91.27
2018-10-07T05:47:50.464Z,91.17
2018-10-07T05:48:50.616Z,91.17
2018-10-07T05:49:50.764Z,90.89
2018-10-07T05:50:50.912Z,91.08
2018-10-07T05:51:51.068Z,91.08
2018-10-07T05:52:51.209Z,91.27
2018-10-07T05:53:51.360Z,91.31
2018-10-07T05:54:51.510Z,91.36
2018-10-07T05:55:51.717Z,91.36
2018-10-07T05:56:51.809Z,91.17
2018-10-07T05:57:51.959Z,91.41
2018-10-07T05:58:52.113Z,91.36
2018-10-07T05:59:52.263Z,90.70
2018-10-07T06:00:52.412Z,90.12
2018-10-07T06:01:52.626Z,90.41
2018-10-07T06:02:52.714Z,90.60
2018-10-07T06:03:52.861Z,90.41
2018-10-07T06:04:53.012Z,90.22
2018-10-07T06:05:53.161Z,90.60
2018-10-07T06:06:53.313Z,89.89
2018-10-07T06:07:53.463Z,89.98
2018-10-07T06:08:53.607Z,89.98
2018-10-07T06:09:53.760Z,90.17
2018-10-07T06:10:53.904Z,90.36
2018-10-07T06:11:54.052Z,90.55
2018-10-07T06:12:54.200Z,90.45
2018-10-07T06:13:54.354Z,89.98
2018-10-07T06:14:54.595Z,89.83
2018-10-07T06:15:54.650Z,89.54
2018-10-07T06:16:54.890Z,89.74
2018-10-07T06:17:55.137Z,90.12
2018-10-07T06:18:55.133Z,91.55
2018-10-07T06:19:55.396Z,91.36
2018-10-07T06:20:55.336Z,92.12
2018-10-07T06:21:55.503Z,91.93
2018-10-07T06:22:55.727Z,92.79
2018-10-07T06:23:55.748Z,93.32
2018-10-07T06:24:55.896Z,92.55
2018-10-07T06:25:56.046Z,92.08
2018-10-07T06:26:56.196Z,91.41
2018-10-07T06:27:56.345Z,91.88
2018-10-07T06:28:56.506Z,91.31
2018-10-07T06:29:56.737Z,91.31
2018-10-07T06:30:56.802Z,91.88
2018-10-07T06:31:56.954Z,91.50
2018-10-07T06:32:57.107Z,91.31
2018-10-07T06:33:57.256Z,91.60
2018-10-07T06:34:57.406Z,91.60
2018-10-07T06:35:57.552Z,91.69
2018-10-07T06:36:57.699Z,91.41
2018-10-07T06:37:57.849Z,92.22
2018-10-07T06:38:58.001Z,91.41
2018-10-07T06:39:58.222Z,91.07
2018-10-07T06:40:58.305Z,90.79
2018-10-07T06:41:58.450Z,91.46
2018-10-07T06:42:58.600Z,91.36
2018-10-07T06:43:58.749Z,91.74
2018-10-07T06:44:58.900Z,91.46
2018-10-07T06:45:59.111Z,91.64
2018-10-07T06:46:59.202Z,91.55
2018-10-07T06:47:59.353Z,91.17
2018-10-07T06:48:59.506Z,90.98
2018-10-07T06:49:59.654Z,90.22
2018-10-07T06:50:59.801Z,91.46
2018-10-07T06:51:59.949Z,91.46
2018-10-07T06:53:00.103Z,90.98
2018-10-07T06:54:00.253Z,91.07
2018-10-07T06:55:00.413Z,91.36
2018-10-07T06:56:00.563Z,91.27
2018-10-07T06:57:00.712Z,91.36
2018-10-07T06:58:00.862Z,91.27
2018-10-07T06:59:01.015Z,90.98
2018-10-07T07:00:01.192Z,91.07
2018-10-07T07:01:01.315Z,91.17
2018-10-07T07:02:01.468Z,91.55
2018-10-07T07:03:01.626Z,91.21
2018-10-07T07:04:01.924Z,91.50
2018-10-07T07:05:01.979Z,91.60
2018-10-07T07:06:02.129Z,91.41
2018-10-07T07:07:02.277Z,91.60
2018-10-07T07:08:02.443Z,91.31
2018-10-07T07:09:02.607Z,90.73
2018-10-07T07:10:02.757Z,90.83
2018-10-07T07:11:02.907Z,90.26
2018-10-07T07:12:03.056Z,90.07
2018-10-07T07:13:03.292Z,90.17
2018-10-07T07:14:03.360Z,90.17
2018-10-07T07:15:03.510Z,90.17
2018-10-07T07:16:03.662Z,90.17
2018-10-07T07:17:03.813Z,90.17
2018-10-07T07:18:03.963Z,90.45
2018-10-07T07:19:04.111Z,90.07
2018-10-07T07:20:04.297Z,91.21
2018-10-07T07:21:04.414Z,91.21
2018-10-07T07:22:04.565Z,91.41
2018-10-07T07:23:04.714Z,91.21
2018-10-07T07:24:04.865Z,92.36
2018-10-07T07:25:05.016Z,92.17
2018-10-07T07:26:05.212Z,91.69
2018-10-07T07:27:05.314Z,91.98
2018-10-07T07:28:05.463Z,91.50
2018-10-07T07:29:05.613Z,91.31
2018-10-07T07:30:05.765Z,90.55
2018-10-07T07:31:05.917Z,91.50
2018-10-07T07:32:06.068Z,90.83
2018-10-07T07:33:06.219Z,91.02
2018-10-07T07:34:06.369Z,91.21
2018-10-07T07:35:06.521Z,90.93
2018-10-07T07:36:06.672Z,90.83
2018-10-07T07:37:06.822Z,91.50
2018-10-07T07:38:06.973Z,91.41
2018-10-07T07:39:07.125Z,91.64
2018-10-07T07:40:07.275Z,91.55
2018-10-07T07:41:07.425Z,91.16
2018-10-07T07:42:07.593Z,91.26
2018-10-07T07:43:07.728Z,91.26
2018-10-07T07:44:07.879Z,91.55
2018-10-07T07:45:08.033Z,92.02
2018-10-07T07:46:08.197Z,92.21
2018-10-07T07:47:08.345Z,91.26
2018-10-07T07:48:08.497Z,91.55
2018-10-07T07:49:08.712Z,91.64
2018-10-07T07:50:08.798Z,91.40
2018-10-07T07:51:08.951Z,91.40
2018-10-07T07:52:09.101Z,91.45
2018-10-07T07:53:09.252Z,91.50
2018-10-07T07:54:09.410Z,91.30
2018-10-07T07:55:09.558Z,93.41
2018-10-07T07:56:09.707Z,92.26
2018-10-07T07:57:09.865Z,91.97
2018-10-07T07:58:10.015Z,92.11
2018-10-07T07:59:10.156Z,93.02
2018-10-07T08:00:10.305Z,93.84
2018-10-07T08:01:10.482Z,93.84
2018-10-07T08:02:10.601Z,93.45
2018-10-07T08:03:10.752Z,93.45
2018-10-07T08:04:10.905Z,92.79
2018-10-07T08:05:11.056Z,92.88
2018-10-07T08:06:11.208Z,92.30
2018-10-07T08:07:11.359Z,91.93
2018-10-07T08:08:11.512Z,91.35
2018-10-07T08:09:11.664Z,92.40
2018-10-07T08:10:11.840Z,92.50
2018-10-07T08:11:11.961Z,91.93
2018-10-07T08:12:12.113Z,92.59
2018-10-07T08:13:12.265Z,91.64
2018-10-07T08:14:12.421Z,91.54
2018-10-07T08:15:12.570Z,90.92
2018-10-07T08:16:12.722Z,91.74
2018-10-07T08:17:12.919Z,91.64
2018-10-07T08:18:13.026Z,91.45
2018-10-07T08:19:13.183Z,92.30
2018-10-07T08:20:13.328Z,92.02
2018-10-07T08:21:13.503Z,92.02
2018-10-07T08:22:13.637Z,91.74
2018-10-07T08:23:13.798Z,91.25
2018-10-07T08:24:13.938Z,90.97
2018-10-07T08:25:14.093Z,92.02
2018-10-07T08:26:14.244Z,92.40
2018-10-07T08:27:14.396Z,92.97
2018-10-07T08:28:14.549Z,92.30
2018-10-07T08:29:14.699Z,92.30
2018-10-07T08:30:14.853Z,93.26
2018-10-07T08:31:15.003Z,92.79
2018-10-07T08:32:15.169Z,93.26
2018-10-07T08:33:15.300Z,92.79
2018-10-07T08:34:15.449Z,93.16
2018-10-07T08:35:15.652Z,92.97
2018-10-07T08:36:15.753Z,92.88
2018-10-07T08:37:15.903Z,92.97
2018-10-07T08:38:16.061Z,92.59
2018-10-07T08:39:16.207Z,92.69
2018-10-07T08:40:16.356Z,92.69
2018-10-07T08:41:16.509Z,93.12
2018-10-07T08:42:16.661Z,93.50
2018-10-07T08:43:16.813Z,92.11
2018-10-07T08:44:16.967Z,92.21
2018-10-07T08:45:17.119Z,91.83
2018-10-07T08:46:17.272Z,92.16
2018-10-07T08:47:17.423Z,92.35
2018-10-07T08:48:17.573Z,91.35
2018-10-07T08:49:17.726Z,91.39
2018-10-07T08:50:17.881Z,91.78
2018-10-07T08:51:18.034Z,91.54
2018-10-07T08:52:18.187Z,91.83
2018-10-07T08:53:18.339Z,91.45
2018-10-07T08:54:18.493Z,91.45
2018-10-07T08:55:18.646Z,91.54
2018-10-07T08:56:18.805Z,91.54
2018-10-07T08:57:18.954Z,91.35
2018-10-07T08:58:19.104Z,91.54
2018-10-07T08:59:19.255Z,91.54
2018-10-07T09:00:19.405Z,91.54
2018-10-07T09:01:19.556Z,91.45
2018-10-07T09:02:19.710Z,90.30
2018-10-07T09:03:19.863Z,90.01
2018-10-07T09:04:20.016Z,89.82
2018-10-07T09:05:20.170Z,89.92
2018-10-07T09:06:20.309Z,89.53
2018-10-07T09:07:20.463Z,89.44
2018-10-07T09:08:20.615Z,89.82
2018-10-07T09:09:20.767Z,89.53
2018-10-07T09:10:20.921Z,90.01
2018-10-07T09:11:21.073Z,90.30
2018-10-07T09:12:21.226Z,89.82
2018-10-07T09:13:21.375Z,90.88
2018-10-07T09:14:21.527Z,91.16
2018-10-07T09:15:21.678Z,91.35
2018-10-07T09:16:21.832Z,91.45
2018-10-07T09:17:21.986Z,90.68
2018-10-07T09:18:22.138Z,91.11
2018-10-07T09:19:22.290Z,91.30
2018-10-07T09:20:22.441Z,90.83
2018-10-07T09:21:22.590Z,90.92
2018-10-07T09:22:22.741Z,91.59
2018-10-07T09:23:22.892Z,91.59
2018-10-07T09:24:23.044Z,91.78
2018-10-07T09:25:23.198Z,91.11
2018-10-07T09:26:23.349Z,93.02
2018-10-07T09:27:23.687Z,92.26
2018-10-07T09:28:23.650Z,92.16
2018-10-07T09:29:23.802Z,92.07
2018-10-07T09:30:23.953Z,92.45
2018-10-07T09:31:24.108Z,91.83
2018-10-07T09:32:24.324Z,92.12
2018-10-07T09:33:24.406Z,91.83
2018-10-07T09:34:24.558Z,91.93
2018-10-07T09:35:24.708Z,91.93
2018-10-07T09:36:24.861Z,92.41
2018-10-07T09:37:25.015Z,91.55
2018-10-07T09:38:25.164Z,92.21
2018-10-07T09:39:25.359Z,92.12
2018-10-07T09:40:25.466Z,92.88
2018-10-07T09:41:25.626Z,92.69
2018-10-07T09:42:25.781Z,93.46
2018-10-07T09:43:25.929Z,92.88
2018-10-07T09:44:26.076Z,92.79
2018-10-07T09:45:26.227Z,93.36
2018-10-07T09:46:26.378Z,93.36
2018-10-07T09:47:26.531Z,92.60
2018-10-07T09:48:26.682Z,93.50
2018-10-07T09:49:26.834Z,92.64
2018-10-07T09:50:26.987Z,93.21
2018-10-07T09:51:27.136Z,93.41
2018-10-07T09:52:27.329Z,93.88
2018-10-07T09:53:27.440Z,93.31
2018-10-07T09:54:27.601Z,93.21
2018-10-07T09:55:27.754Z,93.79
2018-10-07T09:56:27.901Z,93.98
2018-10-07T09:57:28.056Z,94.07
2018-10-07T09:58:28.221Z,93.60
2018-10-07T09:59:28.351Z,93.88
2018-10-07T10:00:28.505Z,94.46
2018-10-07T10:01:28.657Z,94.65
2018-10-07T10:02:28.807Z,95.51
2018-10-07T10:03:28.956Z,95.03
2018-10-07T10:04:29.173Z,95.12
2018-10-07T10:05:29.260Z,95.51
2018-10-07T10:06:29.415Z,95.22
2018-10-07T10:07:29.562Z,94.65
2018-10-07T10:08:29.712Z,95.56
2018-10-07T10:09:29.865Z,95.70
2018-10-07T10:10:30.013Z,95.61
2018-10-07T10:11:30.167Z,94.74
2018-10-07T10:12:30.317Z,95.98
2018-10-07T10:13:30.470Z,95.32
2018-10-07T10:14:30.641Z,95.51
2018-10-07T10:15:30.783Z,95.51
2018-10-07T10:16:30.930Z,95.51
2018-10-07T10:17:31.099Z,95.51
2018-10-07T10:18:31.237Z,93.98
2018-10-07T10:19:31.409Z,96.08
2018-10-07T10:20:31.543Z,95.41
2018-10-07T10:21:31.692Z,95.41
2018-10-07T10:22:31.849Z,95.12
2018-10-07T10:23:31.987Z,93.88
2018-10-07T10:24:32.142Z,94.74
2018-10-07T10:25:32.298Z,94.17
2018-10-07T10:26:32.443Z,93.88
2018-10-07T10:27:32.592Z,93.98
2018-10-07T10:28:32.741Z,95.12
2018-10-07T10:29:32.891Z,94.07
2018-10-07T10:30:33.043Z,93.79
2018-10-07T10:31:33.195Z,95.32
2018-10-07T10:32:33.350Z,95.32
2018-10-07T10:33:33.497Z,94.17
2018-10-07T10:34:33.654Z,94.17
2018-10-07T10:35:33.805Z,94.84
2018-10-07T10:36:33.962Z,94.07
2018-10-07T10:37:34.114Z,95.41
2018-10-07T10:38:34.262Z,95.27
2018-10-07T10:39:34.533Z,95.17
2018-10-07T10:40:34.572Z,94.27
2018-10-07T10:41:34.731Z,93.74
2018-10-07T10:42:34.882Z,94.51
2018-10-07T10:43:35.035Z,93.88
2018-10-07T10:44:35.184Z,93.88
2018-10-07T10:45:35.339Z,94.74
2018-10-07T10:46:35.486Z,94.74
2018-10-07T10:47:35.636Z,94.55
2018-10-07T10:48:35.789Z,94.70
2018-10-07T10:49:35.940Z,94.27
2018-10-07T10:50:36.101Z,93.84
2018-10-07T10:51:36.248Z,93.84
2018-10-07T10:52:36.398Z,94.51
2018-10-07T10:53:36.554Z,95.08
2018-10-07T10:54:36.714Z,94.51
2018-10-07T10:55:36.885Z,93.93
2018-10-07T10:56:37.050Z,94.36
2018-10-07T10:57:37.200Z,94.17
2018-10-07T10:58:37.350Z,94.98
2018-10-07T10:59:37.503Z,95.22
2018-10-07T11:00:37.663Z,95.27
2018-10-07T11:01:37.814Z,94.93
2018-10-07T11:02:38.013Z,94.89
2018-10-07T11:03:38.167Z,95.36
2018-10-07T11:04:38.514Z,94.89
2018-10-07T11:05:38.487Z,95.36
2018-10-07T11:06:38.642Z,95.27
2018-10-07T11:07:38.792Z,95.17
2018-10-07T11:08:38.948Z,94.70
2018-10-07T11:09:39.099Z,94.51
2018-10-07T11:10:39.248Z,94.89
2018-10-07T11:11:39.399Z,94.60
2018-10-07T11:12:39.552Z,95.46
2018-10-07T11:13:39.747Z,95.17
2018-10-07T11:14:39.890Z,94.79
2018-10-07T11:15:40.091Z,94.98
2018-10-07T11:16:40.215Z,94.70
2018-10-07T11:17:40.356Z,95.46
2018-10-07T11:18:40.513Z,95.75
2018-10-07T11:19:40.670Z,95.17
2018-10-07T11:20:40.833Z,95.08
2018-10-07T11:21:40.984Z,95.17
2018-10-07T11:22:41.140Z,95.65
2018-10-07T11:23:41.374Z,94.98
2018-10-07T11:24:41.398Z,95.46
2018-10-07T11:25:41.564Z,95.32
2018-10-07T11:26:41.715Z,95.56
2018-10-07T11:27:41.864Z,95.46
2018-10-07T11:28:42.016Z,95.03
2018-10-07T11:29:42.167Z,95.70
2018-10-07T11:30:42.324Z,95.89
2018-10-07T11:31:42.476Z,96.75
2018-10-07T11:32:42.627Z,97.52
2018-10-07T11:33:42.777Z,96.08
2018-10-07T11:34:42.954Z,97.71
2018-10-07T11:35:43.087Z,96.66
2018-10-07T11:36:43.247Z,97.32
2018-10-07T11:37:43.407Z,97.66
2018-10-07T11:38:43.553Z,98.04
2018-10-07T11:39:43.705Z,97.47
2018-10-07T11:40:44.039Z,98.90
2018-10-07T11:41:44.039Z,98.61
2018-10-07T11:42:44.194Z,98.18
2018-10-07T11:43:44.348Z,98.75
2018-10-07T11:44:44.501Z,98.18
2018-10-07T11:45:44.710Z,99.04
2018-10-07T11:46:44.750Z,99.99
2018-10-07T11:47:44.900Z,99.67
2018-10-07T11:48:45.062Z,99.71
2018-10-07T11:49:45.212Z,98.95
2018-10-07T11:50:45.365Z,99.62
2018-10-07T11:51:45.545Z,99.67
2018-10-07T11:52:45.714Z,99.86
2018-10-07T11:53:45.858Z,99.99
2018-10-07T11:54:46.017Z,99.99
2018-10-07T11:55:46.170Z,99.99
2018-10-07T11:56:46.337Z,99.81
2018-10-07T11:57:46.491Z,99.99
2018-10-07T11:58:46.642Z,99.90
2018-10-07T11:59:46.796Z,99.90
2018-10-07T12:00:46.966Z,99.99
2018-10-07T12:01:47.166Z,99.24
2018-10-07T12:02:47.403Z,99.52
2018-10-07T12:03:47.495Z,99.81
2018-10-07T12:04:47.654Z,99.90
2018-10-07T12:05:47.809Z,99.99
2018-10-07T12:06:47.979Z,99.99
2018-10-07T12:07:48.131Z,99.81
2018-10-07T12:08:48.288Z,99.29
2018-10-07T12:09:48.459Z,99.99
2018-10-07T12:10:48.609Z,99.99
2018-10-07T12:11:48.761Z,99.57
2018-10-07T12:12:48.949Z,99.86
2018-10-07T12:13:49.129Z,99.81
2018-10-07T12:14:49.299Z,99.99
2018-10-07T12:15:49.456Z,99.99
2018-10-07T12:16:49.609Z,99.91
2018-10-07T12:17:49.766Z,99.81
2018-10-07T12:18:50.001Z,99.86
2018-10-07T12:19:50.038Z,99.33
2018-10-07T12:20:50.190Z,99.38
2018-10-07T12:21:50.404Z,99.57
2018-10-07T12:22:50.513Z,98.81
2018-10-07T12:23:50.555Z,98.33
2018-10-07T12:24:50.743Z,99.38
2018-10-07T12:25:50.965Z,99.57
2018-10-07T12:26:51.000Z,99.38
2018-10-07T12:27:51.194Z,99.99
2018-10-07T12:28:51.417Z,99.33
2018-10-07T12:29:51.513Z,99.24
2018-10-07T12:30:51.668Z,99.24
2018-10-07T12:31:51.814Z,99.43
2018-10-07T12:32:51.970Z,99.52
2018-10-07T12:33:52.132Z,99.99
2018-10-07T12:34:52.274Z,99.24
2018-10-07T12:35:52.423Z,99.99
2018-10-07T12:36:52.575Z,99.24
2018-10-07T12:37:52.726Z,99.43
2018-10-07T12:38:52.881Z,99.81
2018-10-07T12:39:53.044Z,99.99
2018-10-07T12:40:53.207Z,99.90
2018-10-07T12:41:53.386Z,99.81
2018-10-07T12:42:53.543Z,99.62
2018-10-07T12:43:53.704Z,99.99
2018-10-07T12:44:53.871Z,99.99
2018-10-07T12:45:54.002Z,98.90
2018-10-07T12:46:54.154Z,99.29
2018-10-07T12:47:54.303Z,99.67
2018-10-07T12:48:54.457Z,99.10
2018-10-07T12:49:54.611Z,99.29
2018-10-07T12:50:54.761Z,99.48
2018-10-07T12:51:54.913Z,99.38
2018-10-07T12:52:55.083Z,98.57
2018-10-07T12:53:55.248Z,98.95
2018-10-07T12:54:55.389Z,98.66